Time,TemperatureF,DewpointF,PressureIn,WindDirection,WindDirectionDegrees,WindSpeedMPH,WindSpeedGustMPH,Humidity,HourlyPrecipIn,Conditions,Clouds,dailyrainin,SoftwareType,DateUTC
2013-08-22 00:00:00,76.8,75.9,30.11,ENE,68,1.0,1.0,97,0.00,,,0.61,Wunderground v.1.15,2013-08-22 04:00:00,
2013-08-22 00:05:00,76.7,75.8,30.11,East,87,1.0,2.0,97,0.00,,,0.00,Wunderground v.1.15,2013-08-22 04:05:00,
2013-08-22 00:10:00,76.8,75.9,30.10,ENE,70,0.0,2.0,97,0.00,,,0.00,Wunderground v.1.15,2013-08-22 04:10:00,
2013-08-22 00:15:00,76.7,75.8,30.10,ENE,69,0.0,2.0,97,0.00,,,0.00,Wunderground v.1.15,2013-08-22 04:15:00,
2013-08-22 00:20:00,76.7,75.8,30.10,ENE,72,0.0,2.0,97,0.00,,,0.00,Wunderground v.1.15,2013-08-22 04:20:00,
2013-08-22 00:30:00,76.7,75.8,30.10,ENE,68,0.0,0.0,97,0.00,,,0.00,Wunderground v.1.15,2013-08-22 04:30:00,
2013-08-22 00:40:00,76.7,75.8,30.10,NE,51,0.0,0.0,97,0.00,,,0.00,Wunderground v.1.15,2013-08-22 04:40:00,
2013-08-22 00:50:00,76.6,75.7,30.10,ENE,71,0.0,0.0,97,0.00,,,0.00,Wunderground v.1.15,2013-08-22 04:50:00,
2013-08-22 00:55:00,76.6,75.7,30.10,ENE,69,0.0,0.0,97,0.00,,,0.00,Wunderground v.1.15,2013-08-22 04:55:00,
2013-08-22 01:05:00,76.6,76.0,30.09,East,82,0.0,5.0,98,0.00,,,0.00,Wunderground v.1.15,2013-08-22 05:05:00,
2013-08-22 01:15:00,76.5,75.9,30.09,ENE,68,0.0,5.0,98,0.00,,,0.00,Wunderground v.1.15,2013-08-22 05:15:00,
2013-08-22 01:24:00,76.4,75.8,30.09,ENE,71,0.0,5.0,98,0.00,,,0.00,Wunderground v.1.15,2013-08-22 05:24:00,
2013-08-22 01:30:00,76.4,75.8,30.09,ENE,59,0.0,0.0,98,0.00,,,0.00,Wunderground v.1.15,2013-08-22 05:30:00,
2013-08-22 01:40:00,76.3,75.7,30.08,East,82,0.0,0.0,98,0.00,,,0.00,Wunderground v.1.15,2013-08-22 05:40:00,
2013-08-22 01:50:00,76.2,75.6,30.08,ENE,57,0.0,0.0,98,0.00,,,0.00,Wunderground v.1.15,2013-08-22 05:50:00,
2013-08-22 01:55:00,76.1,75.5,30.08,ENE,57,0.0,0.0,98,0.00,,,0.00,Wunderground v.1.15,2013-08-22 05:55:00,
2013-08-22 02:05:00,76.1,75.5,30.09,ENE,61,0.0,2.0,98,0.00,,,0.00,Wunderground v.1.15,2013-08-22 06:05:00,
2013-08-22 02:15:00,76.1,75.5,30.09,ENE,58,0.0,2.0,98,0.00,,,0.00,Wunderground v.1.15,2013-08-22 06:15:00,
2013-08-22 02:25:00,76.0,75.4,30.09,ENE,66,0.0,2.0,98,0.00,,,0.00,Wunderground v.1.15,2013-08-22 06:25:00,
2013-08-22 02:34:00,76.0,75.4,30.08,ENE,57,0.0,0.0,98,0.00,,,0.00,Wunderground v.1.15,2013-08-22 06:34:00,
2013-08-22 02:40:00,76.0,75.4,30.08,ENE,70,0.0,0.0,98,0.00,,,0.00,Wunderground v.1.15,2013-08-22 06:40:00,
2013-08-22 02:50:00,76.0,75.4,30.09,East,92,0.0,1.0,98,0.00,,,0.00,Wunderground v.1.15,2013-08-22 06:50:00,
2013-08-22 03:00:00,76.0,75.4,30.09,East,96,0.0,0.0,98,0.00,,,0.00,Wunderground v.1.15,2013-08-22 07:00:00,
2013-08-22 03:10:00,76.0,75.4,30.09,ENE,68,0.0,1.0,98,0.00,,,0.00,Wunderground v.1.15,2013-08-22 07:10:00,
2013-08-22 03:20:00,76.0,75.4,30.09,East,95,0.0,1.0,98,0.00,,,0.00,Wunderground v.1.15,2013-08-22 07:20:00,
2013-08-22 03:25:00,76.0,75.4,30.08,East,84,0.0,1.0,98,0.00,,,0.00,Wunderground v.1.15,2013-08-22 07:25:00,
2013-08-22 03:35:00,76.0,75.4,30.08,East,85,0.0,0.0,98,0.00,,,0.00,Wunderground v.1.15,2013-08-22 07:35:00,
2013-08-22 03:45:00,76.1,75.5,30.08,ENE,58,0.0,0.0,98,0.00,,,0.00,Wunderground v.1.15,2013-08-22 07:45:00,
2013-08-22 03:50:00,76.1,75.5,30.08,ENE,73,0.0,0.0,98,0.00,,,0.00,Wunderground v.1.15,2013-08-22 07:50:00,
2013-08-22 04:00:00,76.0,75.4,30.07,ENE,61,0.0,0.0,98,0.00,,,0.00,Wunderground v.1.15,2013-08-22 08:00:00,
2013-08-22 04:10:00,76.1,75.5,30.06,ENE,68,0.0,2.0,98,0.00,,,0.00,Wunderground v.1.15,2013-08-22 08:10:00,
2013-08-22 04:20:00,76.1,75.5,30.06,East,83,0.0,2.0,98,0.00,,,0.00,Wunderground v.1.15,2013-08-22 08:20:00,
2013-08-22 04:29:00,76.1,75.5,30.06,East,79,0.0,0.0,98,0.00,,,0.00,Wunderground v.1.15,2013-08-22 08:29:00,
2013-08-22 04:35:00,76.1,75.5,30.05,ENE,72,0.0,0.0,98,0.00,,,0.00,Wunderground v.1.15,2013-08-22 08:35:00,
2013-08-22 04:45:00,76.3,76.0,30.05,East,84,0.0,0.0,99,0.00,,,0.00,Wunderground v.1.15,2013-08-22 08:45:00,
2013-08-22 04:55:00,76.3,76.0,30.05,ENE,66,0.0,1.0,99,0.00,,,0.00,Wunderground v.1.15,2013-08-22 08:55:00,
2013-08-22 05:05:00,76.2,75.6,30.05,East,84,0.0,2.0,98,0.00,,,0.00,Wunderground v.1.15,2013-08-22 09:05:00,
2013-08-22 05:15:00,76.1,75.5,30.06,East,85,0.0,2.0,98,0.00,,,0.00,Wunderground v.1.15,2013-08-22 09:15:00,
2013-08-22 05:20:00,76.2,75.9,30.06,East,85,0.0,2.0,99,0.00,,,0.00,Wunderground v.1.15,2013-08-22 09:20:00,
2013-08-22 05:30:00,76.2,75.9,30.06,East,83,0.0,0.0,99,0.00,,,0.00,Wunderground v.1.15,2013-08-22 09:30:00,
2013-08-22 05:40:00,76.3,76.0,30.06,NE,52,0.0,0.0,99,0.00,,,0.00,Wunderground v.1.15,2013-08-22 09:40:00,
2013-08-22 05:45:00,76.3,76.0,30.06,NE,52,0.0,0.0,99,0.00,,,0.00,Wunderground v.1.15,2013-08-22 09:45:00,
2013-08-22 05:55:00,76.3,76.0,30.06,NE,52,0.0,0.0,99,0.00,,,0.00,Wunderground v.1.15,2013-08-22 09:55:00,
2013-08-22 06:05:00,76.3,76.0,30.06,East,79,0.0,1.0,99,0.00,,,0.00,Wunderground v.1.15,2013-08-22 10:05:00,
2013-08-22 06:15:00,76.4,76.1,30.06,East,80,0.0,1.0,99,0.00,,,0.00,Wunderground v.1.15,2013-08-22 10:15:00,
2013-08-22 06:25:00,76.4,76.1,30.06,ENE,64,0.0,1.0,99,0.00,,,0.00,Wunderground v.1.15,2013-08-22 10:25:00,
2013-08-22 06:35:00,76.4,76.1,30.06,NE,51,0.0,0.0,99,0.00,,,0.00,Wunderground v.1.15,2013-08-22 10:35:00,
2013-08-22 06:45:00,76.4,76.1,30.07,ENE,66,0.0,0.0,99,0.00,,,0.00,Wunderground v.1.15,2013-08-22 10:45:00,
2013-08-22 06:50:00,76.4,76.1,30.07,ENE,66,0.0,0.0,99,0.00,,,0.00,Wunderground v.1.15,2013-08-22 10:50:00,
2013-08-22 08:30:00,78.3,78.0,30.10,East,82,0.0,0.0,99,0.00,,,0.00,Wunderground v.1.15,2013-08-22 12:30:00,
2013-08-22 08:40:00,78.6,78.3,30.10,NE,39,0.0,1.0,99,0.00,,,0.00,Wunderground v.1.15,2013-08-22 12:40:00,
2013-08-22 08:50:00,79.3,79.0,30.10,NE,49,1.0,1.0,99,0.00,,,0.00,Wunderground v.1.15,2013-08-22 12:50:00,
2013-08-22 09:00:00,79.9,79.3,30.11,NE,39,2.0,2.0,98,0.00,,,0.00,Wunderground v.1.15,2013-08-22 13:00:00,
2013-08-22 09:09:00,80.2,79.3,30.11,East,85,2.0,2.0,97,0.00,,,0.00,Wunderground v.1.15,2013-08-22 13:09:00,
2013-08-22 09:15:00,80.5,79.6,30.11,East,97,1.0,2.0,97,0.00,,,0.00,Wunderground v.1.15,2013-08-22 13:15:00,
2013-08-22 09:25:00,82.0,80.4,30.11,ENE,60,2.0,3.0,95,0.00,,,0.00,Wunderground v.1.15,2013-08-22 13:25:00,
2013-08-22 09:35:00,82.7,80.1,30.10,NE,53,2.0,2.0,92,0.00,,,0.00,Wunderground v.1.15,2013-08-22 13:35:00,
2013-08-22 09:45:00,83.5,79.6,30.11,ESE,117,2.0,2.0,88,0.00,,,0.00,Wunderground v.1.15,2013-08-22 13:45:00,
2013-08-22 09:55:00,83.8,79.5,30.11,East,81,2.0,2.0,87,0.00,,,0.00,Wunderground v.1.15,2013-08-22 13:55:00,
2013-08-22 10:05:00,84.0,79.7,30.11,SSE,148,1.0,5.0,87,0.00,,,0.00,Wunderground v.1.15,2013-08-22 14:05:00,
2013-08-22 10:15:00,84.3,79.3,30.11,SE,131,1.0,5.0,85,0.00,,,0.00,Wunderground v.1.15,2013-08-22 14:15:00,
2013-08-22 10:25:00,84.8,78.7,30.11,NE,54,2.0,5.0,82,0.00,,,0.00,Wunderground v.1.15,2013-08-22 14:25:00,
2013-08-22 10:35:00,85.7,79.6,30.11,SE,126,2.0,3.0,82,0.00,,,0.00,Wunderground v.1.15,2013-08-22 14:35:00,
2013-08-22 10:45:00,88.6,78.8,30.11,SE,129,2.0,3.0,73,0.00,,,0.00,Wunderground v.1.15,2013-08-22 14:45:00,
2013-08-22 10:55:00,89.1,79.3,30.10,SE,134,3.0,3.0,73,0.00,,,0.00,Wunderground v.1.15,2013-08-22 14:55:00,
2013-08-22 11:05:00,88.4,79.1,30.10,SE,129,1.0,5.0,74,0.00,,,0.00,Wunderground v.1.15,2013-08-22 15:05:00,
2013-08-22 11:15:00,88.4,79.1,30.10,SSE,148,1.0,5.0,74,0.00,,,0.00,Wunderground v.1.15,2013-08-22 15:15:00,
2013-08-22 11:25:00,87.5,79.0,30.09,ESE,109,1.0,3.0,76,0.00,,,0.00,Wunderground v.1.15,2013-08-22 15:25:00,
2013-08-22 11:30:00,86.8,78.7,30.09,East,79,1.0,2.0,77,0.00,,,0.00,Wunderground v.1.15,2013-08-22 15:30:00,
2013-08-22 11:40:00,87.4,79.7,30.09,ENE,65,2.0,4.0,78,0.00,,,0.00,Wunderground v.1.15,2013-08-22 15:40:00,
2013-08-22 11:50:00,88.3,77.3,30.08,East,89,2.0,2.0,70,0.00,,,0.00,Wunderground v.1.15,2013-08-22 15:50:00,
2013-08-22 12:00:00,90.3,80.0,30.08,SE,138,1.0,2.0,72,0.00,,,0.00,Wunderground v.1.15,2013-08-22 16:00:00,
2013-08-22 12:10:00,91.1,77.2,30.08,SSE,148,1.0,1.0,64,0.00,,,0.00,Wunderground v.1.15,2013-08-22 16:10:00,
2013-08-22 12:20:00,91.9,77.5,30.08,SSE,159,1.0,7.0,63,0.00,,,0.00,Wunderground v.1.15,2013-08-22 16:20:00,
2013-08-22 12:29:00,91.7,78.3,30.07,NE,40,1.0,1.0,65,0.00,,,0.00,Wunderground v.1.15,2013-08-22 16:29:00,
2013-08-22 12:35:00,91.0,78.1,30.07,ESE,107,1.0,1.0,66,0.00,,,0.00,Wunderground v.1.15,2013-08-22 16:35:00,
2013-08-22 12:45:00,91.0,78.1,30.07,NW,326,1.0,1.0,66,0.00,,,0.00,Wunderground v.1.15,2013-08-22 16:45:00,
2013-08-22 12:54:00,92.3,78.4,30.06,WSW,241,1.0,2.0,64,0.00,,,0.00,Wunderground v.1.15,2013-08-22 16:54:00,
2013-08-22 13:00:00,93.0,78.5,30.06,SW,236,1.0,1.0,63,0.00,,,0.00,Wunderground v.1.15,2013-08-22 17:00:00,
2013-08-22 13:10:00,95.5,77.8,30.05,South,174,0.0,4.0,57,0.00,,,0.00,Wunderground v.1.15,2013-08-22 17:10:00,
2013-08-22 13:20:00,93.8,78.8,30.04,East,101,2.0,4.0,62,0.00,,,0.00,Wunderground v.1.15,2013-08-22 17:20:00,
2013-08-22 13:30:00,93.6,79.1,30.03,WSW,250,1.0,1.0,63,0.00,,,0.00,Wunderground v.1.15,2013-08-22 17:30:00,
2013-08-22 13:40:00,93.9,77.9,30.04,WNW,290,1.0,1.0,60,0.00,,,0.00,Wunderground v.1.15,2013-08-22 17:40:00,
2013-08-22 13:50:00,94.8,78.2,30.04,East,101,1.0,1.0,59,0.00,,,0.00,Wunderground v.1.15,2013-08-22 17:50:00,
2013-08-22 14:00:00,96.0,79.4,30.04,East,82,0.0,3.0,59,0.00,,,0.00,Wunderground v.1.15,2013-08-22 18:00:00,
2013-08-22 14:10:00,94.4,76.8,30.05,ENE,66,3.0,8.0,57,0.00,,,0.00,Wunderground v.1.15,2013-08-22 18:10:00,
2013-08-22 14:20:00,88.3,75.5,30.05,NE,45,8.0,8.0,66,0.00,,,0.00,Wunderground v.1.15,2013-08-22 18:20:00,
2013-08-22 14:25:00,85.9,73.7,30.05,ENE,65,8.0,9.0,67,0.00,,,0.00,Wunderground v.1.15,2013-08-22 18:25:00,
2013-08-22 14:35:00,82.0,72.1,30.05,SSE,160,9.0,12.0,72,0.00,,,0.00,Wunderground v.1.15,2013-08-22 18:35:00,
2013-08-22 14:45:00,79.5,73.5,30.05,East,89,10.0,10.0,82,0.00,,,0.00,Wunderground v.1.15,2013-08-22 18:45:00,
2013-08-22 14:50:00,78.1,72.5,30.04,East,85,9.0,9.0,83,0.00,,,0.00,Wunderground v.1.15,2013-08-22 18:50:00,
2013-08-22 15:00:00,76.8,71.6,30.04,East,97,8.0,11.0,84,0.00,,,0.00,Wunderground v.1.15,2013-08-22 19:00:00,
2013-08-22 15:10:00,75.3,71.8,30.06,ENE,70,5.0,5.0,89,0.13,,,0.06,Wunderground v.1.15,2013-08-22 19:10:00,
2013-08-22 15:20:00,74.1,71.3,30.06,NNW,334,3.0,3.0,91,0.96,,,0.17,Wunderground v.1.15,2013-08-22 19:20:00,
2013-08-22 15:30:00,73.5,71.4,30.06,NNE,24,1.0,2.0,93,0.11,,,0.20,Wunderground v.1.15,2013-08-22 19:30:00,
2013-08-22 15:40:00,74.4,73.2,30.05,NNE,32,3.0,3.0,96,0.04,,,0.20,Wunderground v.1.15,2013-08-22 19:40:00,
2013-08-22 15:50:00,75.1,73.6,30.05,NNE,18,5.0,5.0,95,0.00,,,0.20,Wunderground v.1.15,2013-08-22 19:50:00,
2013-08-22 15:55:00,75.2,73.7,30.05,NE,51,5.0,7.0,95,0.00,,,0.20,Wunderground v.1.15,2013-08-22 19:55:00,
2013-08-22 16:05:00,74.9,73.1,30.04,NNE,26,7.0,7.0,94,0.00,,,0.20,Wunderground v.1.15,2013-08-22 20:05:00,
2013-08-22 16:15:00,74.8,73.0,30.03,NE,51,7.0,17.0,94,0.00,,,0.20,Wunderground v.1.15,2013-08-22 20:15:00,
2013-08-22 16:25:00,74.9,73.1,30.04,NE,50,8.0,17.0,94,0.00,,,0.20,Wunderground v.1.15,2013-08-22 20:25:00,
2013-08-22 16:34:00,75.2,73.4,30.03,NNE,25,7.0,10.0,94,0.00,,,0.20,Wunderground v.1.15,2013-08-22 20:34:00,
2013-08-22 16:40:00,75.5,73.3,30.03,East,82,7.0,7.0,93,0.00,,,0.20,Wunderground v.1.15,2013-08-22 20:40:00,
2013-08-22 16:50:00,76.0,73.8,30.04,North,8,5.0,5.0,93,0.00,,,0.20,Wunderground v.1.15,2013-08-22 20:50:00,
2013-08-22 17:00:00,76.5,74.3,30.07,ENE,57,4.0,5.0,93,0.00,,,0.20,Wunderground v.1.15,2013-08-22 21:00:00,
2013-08-22 17:05:00,76.7,74.5,30.07,ENE,59,3.0,13.0,93,0.00,,,0.20,Wunderground v.1.15,2013-08-22 21:05:00,
2013-08-22 17:15:00,76.8,74.0,30.06,ENE,70,5.0,13.0,91,0.00,,,0.20,Wunderground v.1.15,2013-08-22 21:15:00,
2013-08-22 17:25:00,76.8,74.0,30.06,ENE,60,5.0,13.0,91,0.00,,,0.20,Wunderground v.1.15,2013-08-22 21:25:00,
2013-08-22 17:35:00,76.7,73.9,30.05,NNE,30,4.0,5.0,91,0.00,,,0.20,Wunderground v.1.15,2013-08-22 21:35:00,
2013-08-22 17:45:00,76.5,73.7,30.05,East,92,4.0,4.0,91,0.00,,,0.20,Wunderground v.1.15,2013-08-22 21:45:00,
2013-08-22 17:50:00,76.4,73.9,30.05,NE,46,3.0,3.0,92,0.00,,,0.20,Wunderground v.1.15,2013-08-22 21:50:00,
2013-08-22 18:00:00,76.2,73.7,30.05,NNE,25,2.0,2.0,92,0.00,,,0.20,Wunderground v.1.15,2013-08-22 22:00:00,
2013-08-22 18:10:00,76.0,73.2,30.04,NE,44,2.0,12.0,91,0.00,,,0.20,Wunderground v.1.15,2013-08-22 22:10:00,
2013-08-22 18:20:00,75.9,73.4,30.03,NE,51,1.0,12.0,92,0.00,,,0.20,Wunderground v.1.15,2013-08-22 22:20:00,
2013-08-22 18:29:00,75.8,73.3,30.04,ENE,77,1.0,2.0,92,0.00,,,0.20,Wunderground v.1.15,2013-08-22 22:29:00,
2013-08-22 18:35:00,75.7,72.9,30.03,NE,47,0.0,2.0,91,0.00,,,0.20,Wunderground v.1.15,2013-08-22 22:35:00,
2013-08-22 18:45:00,75.7,72.9,30.02,NNE,23,0.0,1.0,91,0.00,,,0.20,Wunderground v.1.15,2013-08-22 22:45:00,
2013-08-22 18:55:00,75.6,73.1,30.03,WSW,242,0.0,0.0,92,0.00,,,0.20,Wunderground v.1.15,2013-08-22 22:55:00,
2013-08-22 19:05:00,75.5,73.0,30.04,SW,228,0.0,9.0,92,0.00,,,0.21,Wunderground v.1.15,2013-08-22 23:05:00,
2013-08-22 19:15:00,75.1,73.3,30.05,WSW,252,0.0,9.0,94,0.00,,,0.21,Wunderground v.1.15,2013-08-22 23:15:00,
2013-08-22 19:20:00,75.1,73.3,30.05,WSW,245,0.0,9.0,94,0.00,,,0.21,Wunderground v.1.15,2013-08-22 23:20:00,
2013-08-22 19:30:00,75.0,73.5,30.05,WSW,246,0.0,0.0,95,0.00,,,0.22,Wunderground v.1.15,2013-08-22 23:30:00,
2013-08-22 19:39:00,74.9,73.4,30.05,WSW,246,0.0,0.0,95,0.00,,,0.22,Wunderground v.1.15,2013-08-22 23:39:00,
2013-08-22 19:45:00,74.9,73.4,30.04,WSW,246,0.0,0.0,95,0.00,,,0.23,Wunderground v.1.15,2013-08-22 23:45:00,
2013-08-22 19:55:00,74.8,73.6,30.04,WSW,246,0.0,0.0,96,0.00,,,0.23,Wunderground v.1.15,2013-08-22 23:55:00,
2013-08-22 20:05:00,74.7,73.5,30.04,WSW,246,0.0,3.0,96,0.00,,,0.23,Wunderground v.1.15,2013-08-23 00:05:00,
2013-08-22 20:15:00,74.8,73.6,30.03,WSW,246,0.0,3.0,96,0.00,,,0.23,Wunderground v.1.15,2013-08-23 00:15:00,
2013-08-22 20:24:00,74.9,73.7,30.03,WSW,246,0.0,3.0,96,0.00,,,0.24,Wunderground v.1.15,2013-08-23 00:24:00,
2013-08-22 20:30:00,74.9,73.7,30.02,WSW,246,0.0,0.0,96,0.00,,,0.24,Wunderground v.1.15,2013-08-23 00:30:00,
2013-08-22 20:40:00,74.8,73.9,30.02,SW,231,0.0,0.0,97,0.00,,,0.24,Wunderground v.1.15,2013-08-23 00:40:00,
2013-08-22 20:50:00,74.6,73.7,30.02,East,86,0.0,0.0,97,0.00,,,0.24,Wunderground v.1.15,2013-08-23 00:50:00,
2013-08-22 21:00:00,74.4,73.5,30.02,East,85,0.0,0.0,97,0.00,,,0.24,Wunderground v.1.15,2013-08-23 01:00:00,
2013-08-22 21:10:00,74.3,73.4,30.02,East,80,0.0,0.0,97,0.00,,,0.24,Wunderground v.1.15,2013-08-23 01:10:00,
2013-08-22 21:15:00,74.2,73.3,30.02,East,80,0.0,0.0,97,0.00,,,0.24,Wunderground v.1.15,2013-08-23 01:15:00,
2013-08-22 21:25:00,74.2,73.3,30.02,ENE,72,0.0,0.0,97,0.00,,,0.24,Wunderground v.1.15,2013-08-23 01:25:00,
2013-08-22 21:34:00,74.2,73.3,30.02,ENE,70,0.0,0.0,97,0.00,,,0.24,Wunderground v.1.15,2013-08-23 01:34:00,
2013-08-22 21:40:00,74.2,73.3,30.02,East,89,0.0,0.0,97,0.00,,,0.24,Wunderground v.1.15,2013-08-23 01:40:00,
2013-08-22 21:50:00,74.2,73.3,30.02,ESE,108,0.0,0.0,97,0.00,,,0.24,Wunderground v.1.15,2013-08-23 01:50:00,
2013-08-22 22:00:00,74.3,73.4,30.02,ESE,109,0.0,0.0,97,0.00,,,0.24,Wunderground v.1.15,2013-08-23 02:00:00,
2013-08-22 22:10:00,74.4,73.5,30.02,ESE,119,0.0,0.0,97,0.00,,,0.24,Wunderground v.1.15,2013-08-23 02:10:00,
2013-08-22 22:19:00,74.5,73.6,30.03,East,80,0.0,0.0,97,0.00,,,0.24,Wunderground v.1.15,2013-08-23 02:19:00,
2013-08-22 22:25:00,74.5,73.6,30.02,NNE,30,0.0,0.0,97,0.00,,,0.24,Wunderground v.1.15,2013-08-23 02:25:00,
2013-08-22 22:35:00,74.5,73.6,30.03,NE,47,0.0,0.0,97,0.00,,,0.24,Wunderground v.1.15,2013-08-23 02:35:00,
2013-08-22 22:45:00,74.6,74.0,30.03,East,83,0.0,0.0,98,0.00,,,0.24,Wunderground v.1.15,2013-08-23 02:45:00,
2013-08-22 22:55:00,74.6,74.0,30.03,East,82,0.0,0.0,98,0.00,,,0.24,Wunderground v.1.15,2013-08-23 02:55:00,
2013-08-22 23:05:00,74.7,74.1,30.04,East,82,0.0,1.0,98,0.00,,,0.24,Wunderground v.1.15,2013-08-23 03:05:00,
2013-08-22 23:15:00,74.8,74.2,30.04,East,82,0.0,1.0,98,0.00,,,0.24,Wunderground v.1.15,2013-08-23 03:15:00,
2013-08-22 23:25:00,74.8,74.2,30.04,East,82,0.0,1.0,98,0.00,,,0.24,Wunderground v.1.15,2013-08-23 03:25:00,
2013-08-22 23:35:00,74.9,74.3,30.05,East,82,0.0,0.0,98,0.00,,,0.24,Wunderground v.1.15,2013-08-23 03:35:00,
2013-08-22 23:45:00,75.0,74.4,30.05,NE,38,0.0,0.0,98,0.00,,,0.24,Wunderground v.1.15,2013-08-23 03:45:00,
2013-08-22 23:54:00,75.2,74.6,30.05,NE,48,0.0,1.0,98,0.00,,,0.24,Wunderground v.1.15,2013-08-23 03:54:00,